sensor_id;sensor_type;location;lat;lon;timestamp;temperature;humidity
27890;DHT22;15238;49.082;9.102;2023-03-14T00:01:44;10.30;99.90
27890;DHT22;15238;49.082;9.102;2023-03-14T00:03:45;10.30;99.90
27890;DHT22;15238;49.082;9.102;2023-03-14T00:05:45;10.20;99.90
27890;DHT22;15238;49.082;9.102;2023-03-14T00:07:46;10.20;99.90
27890;DHT22;15238;49.082;9.102;2023-03-14T00:09:46;10.20;99.90
27890;DHT22;15238;49.082;9.102;2023-03-14T00:11:47;10.20;99.90
27890;DHT22;15238;49.082;9.102;2023-03-14T00:13:51;10.20;99.90
27890;DHT22;15238;49.082;9.102;2023-03-14T00:15:51;10.20;99.90
27890;DHT22;15238;49.082;9.102;2023-03-14T00:17:52;10.20;99.90
27890;DHT22;15238;49.082;9.102;2023-03-14T00:19:53;10.20;99.90
27890;DHT22;15238;49.082;9.102;2023-03-14T00:21:54;10.10;99.90
27890;DHT22;15238;49.082;9.102;2023-03-14T00:23:54;10.10;99.90
27890;DHT22;15238;49.082;9.102;2023-03-14T00:26:03;10.10;99.90
27890;DHT22;15238;49.082;9.102;2023-03-14T00:28:04;10.10;99.90
27890;DHT22;15238;49.082;9.102;2023-03-14T00:30:06;10.20;99.90
27890;DHT22;15238;49.082;9.102;2023-03-14T00:32:08;10.10;99.90
27890;DHT22;15238;49.082;9.102;2023-03-14T00:34:08;10.20;99.90
27890;DHT22;15238;49.082;9.102;2023-03-14T00:36:14;10.10;99.90
27890;DHT22;15238;49.082;9.102;2023-03-14T00:38:15;10.10;99.90
27890;DHT22;15238;49.082;9.102;2023-03-14T00:40:16;10.10;99.90
27890;DHT22;15238;49.082;9.102;2023-03-14T00:42:16;10.10;99.90
27890;DHT22;15238;49.082;9.102;2023-03-14T00:44:17;10.10;99.90
27890;DHT22;15238;49.082;9.102;2023-03-14T00:46:18;10.10;99.90
27890;DHT22;15238;49.082;9.102;2023-03-14T00:48:19;10.10;99.90
27890;DHT22;15238;49.082;9.102;2023-03-14T00:50:20;10.10;99.90
27890;DHT22;15238;49.082;9.102;2023-03-14T00:52:20;10.10;99.90
27890;DHT22;15238;49.082;9.102;2023-03-14T00:54:21;10.00;99.90
27890;DHT22;15238;49.082;9.102;2023-03-14T00:56:21;10.10;99.90
27890;DHT22;15238;49.082;9.102;2023-03-14T00:58:22;10.00;99.90
27890;DHT22;15238;49.082;9.102;2023-03-14T01:00:22;10.00;99.90
27890;DHT22;15238;49.082;9.102;2023-03-14T01:02:24;10.00;99.90
27890;DHT22;15238;49.082;9.102;2023-03-14T01:04:24;10.00;99.90
27890;DHT22;15238;49.082;9.102;2023-03-14T01:06:27;10.00;99.90
27890;DHT22;15238;49.082;9.102;2023-03-14T01:08:28;10.00;99.90
27890;DHT22;15238;49.082;9.102;2023-03-14T01:10:28;10.00;99.90
27890;DHT22;15238;49.082;9.102;2023-03-14T01:12:29;10.00;99.90
27890;DHT22;15238;49.082;9.102;2023-03-14T01:14:29;10.00;99.90
27890;DHT22;15238;49.082;9.102;2023-03-14T01:16:32;10.10;99.90
27890;DHT22;15238;49.082;9.102;2023-03-14T01:18:34;10.00;99.90
27890;DHT22;15238;49.082;9.102;2023-03-14T01:20:37;10.00;99.90
27890;DHT22;15238;49.082;9.102;2023-03-14T01:22:39;10.00;99.90
27890;DHT22;15238;49.082;9.102;2023-03-14T01:24:40;10.00;99.90
27890;DHT22;15238;49.082;9.102;2023-03-14T01:26:40;10.10;99.90
27890;DHT22;15238;49.082;9.102;2023-03-14T01:28:41;10.10;99.90
27890;DHT22;15238;49.082;9.102;2023-03-14T01:30:42;10.00;99.90
27890;DHT22;15238;49.082;9.102;2023-03-14T01:32:42;10.10;99.90
27890;DHT22;15238;49.082;9.102;2023-03-14T01:34:43;10.10;99.90
27890;DHT22;15238;49.082;9.102;2023-03-14T01:36:43;10.10;99.90
27890;DHT22;15238;49.082;9.102;2023-03-14T01:38:44;10.10;99.90
27890;DHT22;15238;49.082;9.102;2023-03-14T01:40:45;10.10;99.90
27890;DHT22;15238;49.082;9.102;2023-03-14T01:43:06;10.10;99.90
27890;DHT22;15238;49.082;9.102;2023-03-14T01:47:50;10.10;99.90
27890;DHT22;15238;49.082;9.102;2023-03-14T01:49:55;10.10;99.90
27890;DHT22;15238;49.082;9.102;2023-03-14T01:52:01;10.10;99.90
27890;DHT22;15238;49.082;9.102;2023-03-14T01:56:30;10.10;99.90
27890;DHT22;15238;49.082;9.102;2023-03-14T01:58:32;10.10;99.90
27890;DHT22;15238;49.082;9.102;2023-03-14T02:00:34;10.00;99.90
27890;DHT22;15238;49.082;9.102;2023-03-14T02:02:35;10.00;99.90
27890;DHT22;15238;49.082;9.102;2023-03-14T02:04:36;10.00;99.90
27890;DHT22;15238;49.082;9.102;2023-03-14T02:06:49;10.10;99.90
27890;DHT22;15238;49.082;9.102;2023-03-14T02:08:50;10.00;99.90
27890;DHT22;15238;49.082;9.102;2023-03-14T02:10:51;10.00;99.90
27890;DHT22;15238;49.082;9.102;2023-03-14T02:12:55;10.00;99.90
27890;DHT22;15238;49.082;9.102;2023-03-14T02:14:55;10.00;99.90
27890;DHT22;15238;49.082;9.102;2023-03-14T02:16:56;10.00;99.90
27890;DHT22;15238;49.082;9.102;2023-03-14T02:18:57;10.00;99.90
27890;DHT22;15238;49.082;9.102;2023-03-14T02:21:19;10.00;99.90
27890;DHT22;15238;49.082;9.102;2023-03-14T02:23:59;10.00;99.90
27890;DHT22;15238;49.082;9.102;2023-03-14T02:26:07;10.00;99.90
27890;DHT22;15238;49.082;9.102;2023-03-14T02:28:09;10.00;99.90
27890;DHT22;15238;49.082;9.102;2023-03-14T02:30:22;10.00;99.90
27890;DHT22;15238;49.082;9.102;2023-03-14T02:32:26;10.00;99.90
27890;DHT22;15238;49.082;9.102;2023-03-14T02:34:27;10.00;99.90
27890;DHT22;15238;49.082;9.102;2023-03-14T02:36:29;9.90;99.90
27890;DHT22;15238;49.082;9.102;2023-03-14T02:38:50;9.90;99.90
27890;DHT22;15238;49.082;9.102;2023-03-14T02:40:52;9.90;99.90
27890;DHT22;15238;49.082;9.102;2023-03-14T02:42:53;9.90;99.90
27890;DHT22;15238;49.082;9.102;2023-03-14T02:47:05;9.90;99.90
27890;DHT22;15238;49.082;9.102;2023-03-14T02:49:08;10.00;99.90
27890;DHT22;15238;49.082;9.102;2023-03-14T02:51:10;10.00;99.90
27890;DHT22;15238;49.082;9.102;2023-03-14T02:53:13;10.00;99.90
27890;DHT22;15238;49.082;9.102;2023-03-14T02:55:20;10.00;99.90
27890;DHT22;15238;49.082;9.102;2023-03-14T02:57:21;10.00;99.90
27890;DHT22;15238;49.082;9.102;2023-03-14T02:59:22;10.00;99.90
27890;DHT22;15238;49.082;9.102;2023-03-14T03:01:22;10.00;99.90
27890;DHT22;15238;49.082;9.102;2023-03-14T03:03:23;10.00;99.90
27890;DHT22;15238;49.082;9.102;2023-03-14T03:05:23;10.00;99.90
27890;DHT22;15238;49.082;9.102;2023-03-14T03:07:24;10.10;99.90
27890;DHT22;15238;49.082;9.102;2023-03-14T03:09:24;10.10;99.90
27890;DHT22;15238;49.082;9.102;2023-03-14T03:11:25;10.10;99.90
27890;DHT22;15238;49.082;9.102;2023-03-14T03:13:26;10.10;99.90
27890;DHT22;15238;49.082;9.102;2023-03-14T03:15:27;10.10;99.90
27890;DHT22;15238;49.082;9.102;2023-03-14T03:17:27;10.10;99.90
27890;DHT22;15238;49.082;9.102;2023-03-14T03:19:28;10.10;99.90
27890;DHT22;15238;49.082;9.102;2023-03-14T03:21:28;10.10;99.90
27890;DHT22;15238;49.082;9.102;2023-03-14T03:23:29;10.10;99.90
27890;DHT22;15238;49.082;9.102;2023-03-14T03:25:30;10.10;99.90
27890;DHT22;15238;49.082;9.102;2023-03-14T03:27:32;10.00;99.90
27890;DHT22;15238;49.082;9.102;2023-03-14T03:29:33;10.10;99.90
27890;DHT22;15238;49.082;9.102;2023-03-14T03:31:33;10.10;99.90
27890;DHT22;15238;49.082;9.102;2023-03-14T03:33:37;10.00;99.90
27890;DHT22;15238;49.082;9.102;2023-03-14T03:35:43;10.10;99.90
27890;DHT22;15238;49.082;9.102;2023-03-14T03:37:44;10.00;99.90
27890;DHT22;15238;49.082;9.102;2023-03-14T03:39:44;10.00;99.90
27890;DHT22;15238;49.082;9.102;2023-03-14T03:41:45;10.00;99.90
27890;DHT22;15238;49.082;9.102;2023-03-14T03:43:45;10.00;99.90
27890;DHT22;15238;49.082;9.102;2023-03-14T03:45:46;10.00;99.90
27890;DHT22;15238;49.082;9.102;2023-03-14T03:47:46;9.90;99.90
27890;DHT22;15238;49.082;9.102;2023-03-14T03:49:47;9.90;99.90
27890;DHT22;15238;49.082;9.102;2023-03-14T03:51:47;9.90;99.90
27890;DHT22;15238;49.082;9.102;2023-03-14T03:53:48;9.90;99.90
27890;DHT22;15238;49.082;9.102;2023-03-14T03:55:49;9.90;99.90
27890;DHT22;15238;49.082;9.102;2023-03-14T03:57:49;9.90;99.90
27890;DHT22;15238;49.082;9.102;2023-03-14T03:59:50;9.80;99.90
27890;DHT22;15238;49.082;9.102;2023-03-14T04:01:50;9.80;99.90
27890;DHT22;15238;49.082;9.102;2023-03-14T04:03:51;9.80;99.90
27890;DHT22;15238;49.082;9.102;2023-03-14T04:06:03;9.80;99.90
27890;DHT22;15238;49.082;9.102;2023-03-14T04:08:04;9.80;99.90
27890;DHT22;15238;49.082;9.102;2023-03-14T04:10:05;9.70;99.90
27890;DHT22;15238;49.082;9.102;2023-03-14T04:12:06;9.70;99.90
27890;DHT22;15238;49.082;9.102;2023-03-14T04:14:06;9.70;99.90
27890;DHT22;15238;49.082;9.102;2023-03-14T04:16:15;9.70;99.90
27890;DHT22;15238;49.082;9.102;2023-03-14T04:18:17;9.70;99.90
27890;DHT22;15238;49.082;9.102;2023-03-14T04:20:17;9.70;99.90
27890;DHT22;15238;49.082;9.102;2023-03-14T04:22:18;9.70;99.90
27890;DHT22;15238;49.082;9.102;2023-03-14T04:24:18;9.70;99.90
27890;DHT22;15238;49.082;9.102;2023-03-14T04:26:19;9.60;99.90
27890;DHT22;15238;49.082;9.102;2023-03-14T04:28:20;9.60;99.90
27890;DHT22;15238;49.082;9.102;2023-03-14T04:30:20;9.50;99.90
27890;DHT22;15238;49.082;9.102;2023-03-14T04:32:21;9.40;99.90
27890;DHT22;15238;49.082;9.102;2023-03-14T04:34:21;9.40;99.90
27890;DHT22;15238;49.082;9.102;2023-03-14T04:36:22;9.40;99.90
27890;DHT22;15238;49.082;9.102;2023-03-14T04:38:22;9.30;99.90
27890;DHT22;15238;49.082;9.102;2023-03-14T04:40:23;9.30;99.90
27890;DHT22;15238;49.082;9.102;2023-03-14T04:42:23;9.30;99.90
27890;DHT22;15238;49.082;9.102;2023-03-14T04:44:24;9.20;99.90
27890;DHT22;15238;49.082;9.102;2023-03-14T04:46:24;9.20;99.90
27890;DHT22;15238;49.082;9.102;2023-03-14T04:48:26;9.20;99.90
27890;DHT22;15238;49.082;9.102;2023-03-14T04:50:26;9.20;99.90
27890;DHT22;15238;49.082;9.102;2023-03-14T04:52:27;9.10;99.90
27890;DHT22;15238;49.082;9.102;2023-03-14T04:54:28;9.20;99.90
27890;DHT22;15238;49.082;9.102;2023-03-14T04:56:28;9.10;99.90
27890;DHT22;15238;49.082;9.102;2023-03-14T04:58:29;9.10;99.90
27890;DHT22;15238;49.082;9.102;2023-03-14T05:00:29;9.00;99.90
27890;DHT22;15238;49.082;9.102;2023-03-14T05:02:30;9.00;99.90
27890;DHT22;15238;49.082;9.102;2023-03-14T05:04:30;9.00;99.90
27890;DHT22;15238;49.082;9.102;2023-03-14T05:06:33;9.00;99.90
27890;DHT22;15238;49.082;9.102;2023-03-14T05:08:33;9.00;99.90
27890;DHT22;15238;49.082;9.102;2023-03-14T05:10:34;9.00;99.90
27890;DHT22;15238;49.082;9.102;2023-03-14T05:12:34;8.90;99.90
27890;DHT22;15238;49.082;9.102;2023-03-14T05:14:35;8.90;99.90
27890;DHT22;15238;49.082;9.102;2023-03-14T05:16:35;8.90;99.90
27890;DHT22;15238;49.082;9.102;2023-03-14T05:18:37;8.90;99.90
27890;DHT22;15238;49.082;9.102;2023-03-14T05:20:37;8.90;99.90
27890;DHT22;15238;49.082;9.102;2023-03-14T05:22:39;8.90;99.90
27890;DHT22;15238;49.082;9.102;2023-03-14T05:24:39;8.90;99.90
27890;DHT22;15238;49.082;9.102;2023-03-14T05:26:40;8.90;99.90
27890;DHT22;15238;49.082;9.102;2023-03-14T05:28:40;8.80;99.90
27890;DHT22;15238;49.082;9.102;2023-03-14T05:30:41;8.80;99.90
27890;DHT22;15238;49.082;9.102;2023-03-14T05:32:42;8.80;99.90
27890;DHT22;15238;49.082;9.102;2023-03-14T05:34:42;8.80;99.90
27890;DHT22;15238;49.082;9.102;2023-03-14T05:36:43;8.90;99.90
27890;DHT22;15238;49.082;9.102;2023-03-14T05:38:43;8.90;99.90
27890;DHT22;15238;49.082;9.102;2023-03-14T05:40:44;9.00;99.90
27890;DHT22;15238;49.082;9.102;2023-03-14T05:42:45;8.90;99.90
27890;DHT22;15238;49.082;9.102;2023-03-14T05:44:46;9.00;99.90
27890;DHT22;15238;49.082;9.102;2023-03-14T05:46:46;9.00;99.90
27890;DHT22;15238;49.082;9.102;2023-03-14T05:48:47;9.00;99.90
27890;DHT22;15238;49.082;9.102;2023-03-14T05:50:47;9.00;99.90
27890;DHT22;15238;49.082;9.102;2023-03-14T05:52:48;9.10;99.90
27890;DHT22;15238;49.082;9.102;2023-03-14T05:54:48;9.10;99.90
27890;DHT22;15238;49.082;9.102;2023-03-14T05:56:49;9.10;99.90
27890;DHT22;15238;49.082;9.102;2023-03-14T05:58:49;9.10;99.90
27890;DHT22;15238;49.082;9.102;2023-03-14T06:00:50;9.10;99.90
27890;DHT22;15238;49.082;9.102;2023-03-14T06:02:51;9.10;99.90
27890;DHT22;15238;49.082;9.102;2023-03-14T06:04:52;9.10;99.90
27890;DHT22;15238;49.082;9.102;2023-03-14T06:06:53;9.10;99.90
27890;DHT22;15238;49.082;9.102;2023-03-14T06:08:53;9.10;99.90
27890;DHT22;15238;49.082;9.102;2023-03-14T06:10:54;9.10;99.90
27890;DHT22;15238;49.082;9.102;2023-03-14T06:12:55;9.20;99.90
27890;DHT22;15238;49.082;9.102;2023-03-14T06:14:55;9.20;99.90
27890;DHT22;15238;49.082;9.102;2023-03-14T06:16:56;9.20;99.90
27890;DHT22;15238;49.082;9.102;2023-03-14T06:18:56;9.20;99.90
27890;DHT22;15238;49.082;9.102;2023-03-14T06:20:57;9.20;99.90
27890;DHT22;15238;49.082;9.102;2023-03-14T06:22:58;9.20;99.90
27890;DHT22;15238;49.082;9.102;2023-03-14T06:24:58;9.30;99.90
27890;DHT22;15238;49.082;9.102;2023-03-14T06:26:59;9.30;99.90
27890;DHT22;15238;49.082;9.102;2023-03-14T06:28:59;9.20;99.90
27890;DHT22;15238;49.082;9.102;2023-03-14T06:31:03;9.20;99.90
27890;DHT22;15238;49.082;9.102;2023-03-14T06:33:04;9.20;99.90
27890;DHT22;15238;49.082;9.102;2023-03-14T06:35:05;9.20;99.90
27890;DHT22;15238;49.082;9.102;2023-03-14T06:37:06;9.20;99.90
27890;DHT22;15238;49.082;9.102;2023-03-14T06:39:06;9.20;99.90
27890;DHT22;15238;49.082;9.102;2023-03-14T06:41:07;9.20;99.90
27890;DHT22;15238;49.082;9.102;2023-03-14T06:43:08;9.30;99.90
27890;DHT22;15238;49.082;9.102;2023-03-14T06:45:09;9.40;99.90
27890;DHT22;15238;49.082;9.102;2023-03-14T06:47:09;9.50;99.90
27890;DHT22;15238;49.082;9.102;2023-03-14T06:49:10;9.50;99.90
27890;DHT22;15238;49.082;9.102;2023-03-14T06:51:11;9.50;99.90
27890;DHT22;15238;49.082;9.102;2023-03-14T06:53:12;9.60;99.90
27890;DHT22;15238;49.082;9.102;2023-03-14T06:55:13;9.70;99.90
27890;DHT22;15238;49.082;9.102;2023-03-14T06:57:13;9.80;99.90
27890;DHT22;15238;49.082;9.102;2023-03-14T06:59:14;9.90;99.90
27890;DHT22;15238;49.082;9.102;2023-03-14T07:01:24;10.00;99.90
27890;DHT22;15238;49.082;9.102;2023-03-14T07:03:25;10.00;99.90
27890;DHT22;15238;49.082;9.102;2023-03-14T07:05:25;10.10;99.90
27890;DHT22;15238;49.082;9.102;2023-03-14T07:07:27;10.10;99.90
27890;DHT22;15238;49.082;9.102;2023-03-14T07:09:28;10.20;99.90
27890;DHT22;15238;49.082;9.102;2023-03-14T07:11:28;10.20;99.90
27890;DHT22;15238;49.082;9.102;2023-03-14T07:13:29;10.20;99.90
27890;DHT22;15238;49.082;9.102;2023-03-14T07:15:29;10.20;99.90
27890;DHT22;15238;49.082;9.102;2023-03-14T07:17:30;10.20;99.90
27890;DHT22;15238;49.082;9.102;2023-03-14T07:19:30;10.10;99.90
27890;DHT22;15238;49.082;9.102;2023-03-14T07:21:31;10.10;99.90
27890;DHT22;15238;49.082;9.102;2023-03-14T07:23:33;10.20;99.90
27890;DHT22;15238;49.082;9.102;2023-03-14T07:25:33;10.20;99.90
27890;DHT22;15238;49.082;9.102;2023-03-14T07:27:34;10.20;99.90
27890;DHT22;15238;49.082;9.102;2023-03-14T07:29:34;10.20;99.90
27890;DHT22;15238;49.082;9.102;2023-03-14T07:31:35;10.20;99.90
27890;DHT22;15238;49.082;9.102;2023-03-14T07:33:35;10.30;99.90
27890;DHT22;15238;49.082;9.102;2023-03-14T07:35:37;10.30;99.90
27890;DHT22;15238;49.082;9.102;2023-03-14T07:37:38;10.30;99.90
27890;DHT22;15238;49.082;9.102;2023-03-14T07:39:38;10.40;99.90
27890;DHT22;15238;49.082;9.102;2023-03-14T07:41:39;10.40;99.90
27890;DHT22;15238;49.082;9.102;2023-03-14T07:43:39;10.50;99.90
27890;DHT22;15238;49.082;9.102;2023-03-14T07:45:40;10.50;99.90
27890;DHT22;15238;49.082;9.102;2023-03-14T07:47:41;10.60;99.90
27890;DHT22;15238;49.082;9.102;2023-03-14T07:49:41;10.70;99.90
27890;DHT22;15238;49.082;9.102;2023-03-14T07:51:42;10.80;99.90
27890;DHT22;15238;49.082;9.102;2023-03-14T07:53:44;10.80;99.90
27890;DHT22;15238;49.082;9.102;2023-03-14T07:55:46;10.90;99.90
27890;DHT22;15238;49.082;9.102;2023-03-14T07:57:46;11.10;99.90
27890;DHT22;15238;49.082;9.102;2023-03-14T07:59:47;11.40;99.90
27890;DHT22;15238;49.082;9.102;2023-03-14T08:01:47;11.80;99.90
27890;DHT22;15238;49.082;9.102;2023-03-14T08:03:48;12.10;99.90
27890;DHT22;15238;49.082;9.102;2023-03-14T08:05:50;12.20;99.90
27890;DHT22;15238;49.082;9.102;2023-03-14T08:07:51;12.30;99.90
27890;DHT22;15238;49.082;9.102;2023-03-14T08:09:51;12.30;99.90
27890;DHT22;15238;49.082;9.102;2023-03-14T08:11:52;12.40;99.90
27890;DHT22;15238;49.082;9.102;2023-03-14T08:13:52;12.40;99.90
27890;DHT22;15238;49.082;9.102;2023-03-14T08:15:53;12.50;99.90
27890;DHT22;15238;49.082;9.102;2023-03-14T08:17:53;12.50;99.90
27890;DHT22;15238;49.082;9.102;2023-03-14T08:19:54;12.40;99.90
27890;DHT22;15238;49.082;9.102;2023-03-14T08:21:54;12.30;99.90
27890;DHT22;15238;49.082;9.102;2023-03-14T08:23:55;12.30;99.90
27890;DHT22;15238;49.082;9.102;2023-03-14T08:25:55;12.30;99.90
27890;DHT22;15238;49.082;9.102;2023-03-14T08:27:56;12.30;99.90
27890;DHT22;15238;49.082;9.102;2023-03-14T08:29:57;12.30;99.90
27890;DHT22;15238;49.082;9.102;2023-03-14T08:31:57;12.20;99.90
27890;DHT22;15238;49.082;9.102;2023-03-14T08:33:59;12.30;99.90
27890;DHT22;15238;49.082;9.102;2023-03-14T08:36:00;12.30;99.90
27890;DHT22;15238;49.082;9.102;2023-03-14T08:38:01;12.40;99.90
27890;DHT22;15238;49.082;9.102;2023-03-14T08:40:04;12.40;99.90
27890;DHT22;15238;49.082;9.102;2023-03-14T08:42:06;12.50;99.90
27890;DHT22;15238;49.082;9.102;2023-03-14T08:44:07;12.60;99.90
27890;DHT22;15238;49.082;9.102;2023-03-14T08:46:08;12.60;99.90
27890;DHT22;15238;49.082;9.102;2023-03-14T08:48:09;12.70;99.90
27890;DHT22;15238;49.082;9.102;2023-03-14T08:50:10;12.60;99.90
27890;DHT22;15238;49.082;9.102;2023-03-14T08:52:11;12.60;99.90
27890;DHT22;15238;49.082;9.102;2023-03-14T08:54:12;12.60;99.90
27890;DHT22;15238;49.082;9.102;2023-03-14T08:56:12;12.70;99.90
27890;DHT22;15238;49.082;9.102;2023-03-14T08:58:13;12.80;99.90
27890;DHT22;15238;49.082;9.102;2023-03-14T09:00:14;12.70;99.90
27890;DHT22;15238;49.082;9.102;2023-03-14T09:02:15;12.60;99.90
27890;DHT22;15238;49.082;9.102;2023-03-14T09:04:16;12.50;99.90
27890;DHT22;15238;49.082;9.102;2023-03-14T09:06:17;12.30;99.90
27890;DHT22;15238;49.082;9.102;2023-03-14T09:08:18;12.20;99.90
27890;DHT22;15238;49.082;9.102;2023-03-14T09:10:18;12.00;99.90
27890;DHT22;15238;49.082;9.102;2023-03-14T09:12:19;11.90;99.90
27890;DHT22;15238;49.082;9.102;2023-03-14T09:14:20;12.00;99.90
27890;DHT22;15238;49.082;9.102;2023-03-14T09:16:20;11.90;99.90
27890;DHT22;15238;49.082;9.102;2023-03-14T09:18:21;11.70;99.90
27890;DHT22;15238;49.082;9.102;2023-03-14T09:20:22;11.70;99.90
27890;DHT22;15238;49.082;9.102;2023-03-14T09:22:23;11.60;99.90
27890;DHT22;15238;49.082;9.102;2023-03-14T09:24:24;11.60;99.90
27890;DHT22;15238;49.082;9.102;2023-03-14T09:26:24;11.60;99.90
27890;DHT22;15238;49.082;9.102;2023-03-14T09:28:25;11.70;99.90
27890;DHT22;15238;49.082;9.102;2023-03-14T09:30:26;11.80;99.90
27890;DHT22;15238;49.082;9.102;2023-03-14T09:32:26;11.80;99.90
27890;DHT22;15238;49.082;9.102;2023-03-14T09:34:27;11.80;99.90
27890;DHT22;15238;49.082;9.102;2023-03-14T09:36:27;11.90;99.90
27890;DHT22;15238;49.082;9.102;2023-03-14T09:38:28;11.90;99.90
27890;DHT22;15238;49.082;9.102;2023-03-14T09:40:33;11.90;99.90
27890;DHT22;15238;49.082;9.102;2023-03-14T09:42:36;11.90;99.90
27890;DHT22;15238;49.082;9.102;2023-03-14T09:44:47;11.90;99.90
27890;DHT22;15238;49.082;9.102;2023-03-14T09:46:52;11.90;99.90
27890;DHT22;15238;49.082;9.102;2023-03-14T09:48:53;11.90;99.90
27890;DHT22;15238;49.082;9.102;2023-03-14T09:50:56;11.80;99.90
27890;DHT22;15238;49.082;9.102;2023-03-14T09:53:03;11.90;99.90
27890;DHT22;15238;49.082;9.102;2023-03-14T09:57:09;11.80;99.90
27890;DHT22;15238;49.082;9.102;2023-03-14T09:59:12;11.80;99.90
27890;DHT22;15238;49.082;9.102;2023-03-14T10:01:16;11.90;99.90
27890;DHT22;15238;49.082;9.102;2023-03-14T10:03:23;11.90;99.90
27890;DHT22;15238;49.082;9.102;2023-03-14T10:05:25;12.10;99.90
27890;DHT22;15238;49.082;9.102;2023-03-14T10:07:29;12.10;99.90
27890;DHT22;15238;49.082;9.102;2023-03-14T10:09:30;12.20;99.90
27890;DHT22;15238;49.082;9.102;2023-03-14T10:11:31;12.30;99.90
27890;DHT22;15238;49.082;9.102;2023-03-14T10:13:31;12.40;99.90
27890;DHT22;15238;49.082;9.102;2023-03-14T10:15:34;12.50;99.90
27890;DHT22;15238;49.082;9.102;2023-03-14T10:17:42;12.60;99.90
27890;DHT22;15238;49.082;9.102;2023-03-14T10:20:01;12.60;99.90
27890;DHT22;15238;49.082;9.102;2023-03-14T10:22:04;12.60;99.90
27890;DHT22;15238;49.082;9.102;2023-03-14T10:24:34;12.60;99.90
27890;DHT22;15238;49.082;9.102;2023-03-14T10:26:35;12.60;99.90
27890;DHT22;15238;49.082;9.102;2023-03-14T10:28:44;12.70;99.90
27890;DHT22;15238;49.082;9.102;2023-03-14T10:30:46;12.80;99.90
27890;DHT22;15238;49.082;9.102;2023-03-14T10:32:46;12.90;99.90
27890;DHT22;15238;49.082;9.102;2023-03-14T10:37:17;13.00;99.90
27890;DHT22;15238;49.082;9.102;2023-03-14T10:41:26;12.80;99.90
27890;DHT22;15238;49.082;9.102;2023-03-14T10:43:35;12.70;99.90
27890;DHT22;15238;49.082;9.102;2023-03-14T10:45:41;12.60;99.90
27890;DHT22;15238;49.082;9.102;2023-03-14T10:47:50;12.70;99.90
27890;DHT22;15238;49.082;9.102;2023-03-14T10:49:51;12.80;99.90
27890;DHT22;15238;49.082;9.102;2023-03-14T10:51:52;12.80;99.90
27890;DHT22;15238;49.082;9.102;2023-03-14T10:56:02;12.50;99.90
27890;DHT22;15238;49.082;9.102;2023-03-14T10:58:04;12.40;99.90
27890;DHT22;15238;49.082;9.102;2023-03-14T11:00:11;12.40;99.90
27890;DHT22;15238;49.082;9.102;2023-03-14T11:04:54;12.30;99.90
27890;DHT22;15238;49.082;9.102;2023-03-14T11:07:14;12.30;99.90
27890;DHT22;15238;49.082;9.102;2023-03-14T11:09:37;12.20;99.90
27890;DHT22;15238;49.082;9.102;2023-03-14T11:11:45;12.10;99.90
27890;DHT22;15238;49.082;9.102;2023-03-14T11:14:33;12.00;99.90
27890;DHT22;15238;49.082;9.102;2023-03-14T11:23:28;12.00;99.90
27890;DHT22;15238;49.082;9.102;2023-03-14T11:28:36;12.00;99.90
27890;DHT22;15238;49.082;9.102;2023-03-14T11:30:52;11.90;99.90
27890;DHT22;15238;49.082;9.102;2023-03-14T11:33:14;11.70;99.90
27890;DHT22;15238;49.082;9.102;2023-03-14T11:35:20;11.70;99.90
27890;DHT22;15238;49.082;9.102;2023-03-14T11:37:47;11.70;99.90
27890;DHT22;15238;49.082;9.102;2023-03-14T11:40:22;11.40;99.90
27890;DHT22;15238;49.082;9.102;2023-03-14T11:42:21;11.20;99.90
27890;DHT22;15238;49.082;9.102;2023-03-14T11:44:27;11.20;99.90
27890;DHT22;15238;49.082;9.102;2023-03-14T11:46:36;11.20;99.90
27890;DHT22;15238;49.082;9.102;2023-03-14T11:48:49;11.20;99.90
27890;DHT22;15238;49.082;9.102;2023-03-14T11:50:55;11.20;99.90
27890;DHT22;15238;49.082;9.102;2023-03-14T11:53:05;11.20;99.90
27890;DHT22;15238;49.082;9.102;2023-03-14T11:57:22;11.30;99.90
27890;DHT22;15238;49.082;9.102;2023-03-14T12:01:53;11.20;99.90
27890;DHT22;15238;49.082;9.102;2023-03-14T12:04:09;11.20;99.90
27890;DHT22;15238;49.082;9.102;2023-03-14T12:08:43;11.00;99.90
27890;DHT22;15238;49.082;9.102;2023-03-14T12:10:54;10.90;99.90
27890;DHT22;15238;49.082;9.102;2023-03-14T12:12:56;10.90;99.90
27890;DHT22;15238;49.082;9.102;2023-03-14T12:15:02;10.90;99.90
27890;DHT22;15238;49.082;9.102;2023-03-14T12:17:26;10.90;99.90
27890;DHT22;15238;49.082;9.102;2023-03-14T12:19:30;11.00;99.90
27890;DHT22;15238;49.082;9.102;2023-03-14T12:21:46;11.00;99.90
27890;DHT22;15238;49.082;9.102;2023-03-14T12:26:06;10.70;99.90
27890;DHT22;15238;49.082;9.102;2023-03-14T12:28:21;10.50;99.90
27890;DHT22;15238;49.082;9.102;2023-03-14T12:30:32;10.20;99.90
27890;DHT22;15238;49.082;9.102;2023-03-14T12:32:33;9.80;99.90
27890;DHT22;15238;49.082;9.102;2023-03-14T12:34:44;9.70;99.90
27890;DHT22;15238;49.082;9.102;2023-03-14T12:39:03;9.50;99.90
27890;DHT22;15238;49.082;9.102;2023-03-14T12:43:33;9.40;99.90
27890;DHT22;15238;49.082;9.102;2023-03-14T12:45:35;9.30;99.90
27890;DHT22;15238;49.082;9.102;2023-03-14T12:49:37;9.30;99.90
27890;DHT22;15238;49.082;9.102;2023-03-14T12:51:43;9.20;99.90
27890;DHT22;15238;49.082;9.102;2023-03-14T12:56:24;9.20;99.90
27890;DHT22;15238;49.082;9.102;2023-03-14T13:00:34;9.20;99.90
27890;DHT22;15238;49.082;9.102;2023-03-14T13:02:41;9.20;99.90
27890;DHT22;15238;49.082;9.102;2023-03-14T13:05:04;9.20;99.90
27890;DHT22;15238;49.082;9.102;2023-03-14T13:07:12;9.20;99.90
27890;DHT22;15238;49.082;9.102;2023-03-14T13:11:26;9.20;99.90
27890;DHT22;15238;49.082;9.102;2023-03-14T13:13:26;9.20;99.90
27890;DHT22;15238;49.082;9.102;2023-03-14T13:15:34;9.20;99.90
27890;DHT22;15238;49.082;9.102;2023-03-14T13:17:40;9.20;99.90
27890;DHT22;15238;49.082;9.102;2023-03-14T13:19:42;9.20;99.90
27890;DHT22;15238;49.082;9.102;2023-03-14T13:21:43;9.30;99.90
27890;DHT22;15238;49.082;9.102;2023-03-14T13:23:56;9.30;99.90
27890;DHT22;15238;49.082;9.102;2023-03-14T13:25:58;9.30;99.90
27890;DHT22;15238;49.082;9.102;2023-03-14T13:28:00;9.40;99.90
27890;DHT22;15238;49.082;9.102;2023-03-14T13:30:23;9.40;99.90
27890;DHT22;15238;49.082;9.102;2023-03-14T13:32:28;9.50;99.90
27890;DHT22;15238;49.082;9.102;2023-03-14T13:34:30;9.50;99.90
27890;DHT22;15238;49.082;9.102;2023-03-14T13:36:31;9.50;99.90
27890;DHT22;15238;49.082;9.102;2023-03-14T13:38:34;9.60;99.90
27890;DHT22;15238;49.082;9.102;2023-03-14T13:40:35;9.70;99.90
27890;DHT22;15238;49.082;9.102;2023-03-14T13:42:36;9.60;99.90
27890;DHT22;15238;49.082;9.102;2023-03-14T13:44:39;9.70;99.90
27890;DHT22;15238;49.082;9.102;2023-03-14T13:46:40;9.80;99.90
27890;DHT22;15238;49.082;9.102;2023-03-14T13:48:45;9.80;99.90
27890;DHT22;15238;49.082;9.102;2023-03-14T13:50:53;9.90;99.90
27890;DHT22;15238;49.082;9.102;2023-03-14T13:52:58;10.00;99.90